Aviation Digital Data Service (ADDS)

Output produced by METARs form (1346 UTC 17 December 2017)
found at http://www.aviationweather.gov/adds/metars/
 
METAR text: KAGC 171253Z 16005KT 8SM CLR M01/M04 A3018 RMK AO2 SLP236 T10111044
Conditions at: KAGC (PITTSBURGH/ALLEG, PA, US) observed 1253 UTC 17 December 2017
Temperature: -1.1°C (30°F)
Dewpoint: -4.4°C (24°F) [RH = 78%]
Pressure (altimeter): 30.18 inches Hg (1022.1 mb)
[Sea-level pressure: 1023.6 mb]
Winds: from the SSE (160 degrees) at 6 MPH (5 knots; 2.6 m/s)
Visibility: 8 miles (13 km)
Ceiling: at least 12,000 feet AGL
Clouds: sky clear below 12,000 feet AGL
Weather: no significant weather observed at this time

METAR text: KAGC 171153Z 19003KT 10SM CLR 01/M04 A3017 RMK AO2 SLP232 70002 T00061044 10011 20000 53005
Conditions at: KAGC (PITTSBURGH/ALLEG, PA, US) observed 1153 UTC 17 December 2017
Temperature: 0.6°C (33°F)
Dewpoint: -4.4°C (24°F) [RH = 69%]
Pressure (altimeter): 30.17 inches Hg (1021.8 mb)
[Sea-level pressure: 1023.2 mb]
Winds: from the S (190 degrees) at 3 MPH (3 knots; 1.6 m/s)
Visibility: 10 or more miles (16+ km)
Ceiling: at least 12,000 feet AGL
Clouds: sky clear below 12,000 feet AGL
Weather: no significant weather observed at this time

METAR text: KAGC 171053Z 20007KT 10SM CLR 01/M04 A3016 RMK AO2 SLP230 T00061044
Conditions at: KAGC (PITTSBURGH/ALLEG, PA, US) observed 1053 UTC 17 December 2017
Temperature: 0.6°C (33°F)
Dewpoint: -4.4°C (24°F) [RH = 69%]
Pressure (altimeter): 30.16 inches Hg (1021.4 mb)
[Sea-level pressure: 1023.0 mb]
Winds: from the SSW (200 degrees) at 8 MPH (7 knots; 3.6 m/s)
Visibility: 10 or more miles (16+ km)
Ceiling: at least 12,000 feet AGL
Clouds: sky clear below 12,000 feet AGL
Weather: no significant weather observed at this time

METAR text: KAGC 170953Z 20008KT 10SM CLR 01/M04 A3015 RMK AO2 SLP224 T00111044
Conditions at: KAGC (PITTSBURGH/ALLEG, PA, US) observed 0953 UTC 17 December 2017
Temperature: 1.1°C (34°F)
Dewpoint: -4.4°C (24°F) [RH = 67%]
Pressure (altimeter): 30.15 inches Hg (1021.1 mb)
[Sea-level pressure: 1022.4 mb]
Winds: from the SSW (200 degrees) at 9 MPH (8 knots; 4.2 m/s)
Visibility: 10 or more miles (16+ km)
Ceiling: at least 12,000 feet AGL
Clouds: sky clear below 12,000 feet AGL
Weather: no significant weather observed at this time

METAR text: KAGC 170853Z 20009KT 10SM CLR 01/M04 A3016 RMK AO2 SLP226 T00111044 50007
Conditions at: KAGC (PITTSBURGH/ALLEG, PA, US) observed 0853 UTC 17 December 2017
Temperature: 1.1°C (34°F)
Dewpoint: -4.4°C (24°F) [RH = 67%]
Pressure (altimeter): 30.16 inches Hg (1021.4 mb)
[Sea-level pressure: 1022.6 mb]
Winds: from the SSW (200 degrees) at 10 MPH (9 knots; 4.7 m/s)
Visibility: 10 or more miles (16+ km)
Ceiling: at least 12,000 feet AGL
Clouds: sky clear below 12,000 feet AGL
Weather: no significant weather observed at this time

METAR text: KAGC 170753Z 19007KT 10SM CLR 01/M05 A3016 RMK AO2 SLP228 T00111050
Conditions at: KAGC (PITTSBURGH/ALLEG, PA, US) observed 0753 UTC 17 December 2017
Temperature: 1.1°C (34°F)
Dewpoint: -5.0°C (23°F) [RH = 64%]
Pressure (altimeter): 30.16 inches Hg (1021.4 mb)
[Sea-level pressure: 1022.8 mb]
Winds: from the S (190 degrees) at 8 MPH (7 knots; 3.6 m/s)
Visibility: 10 or more miles (16+ km)
Ceiling: at least 12,000 feet AGL
Clouds: sky clear below 12,000 feet AGL
Weather: no significant weather observed at this time

METAR text: KAGC 170653Z 20007KT 10SM CLR 01/M05 A3015 RMK AO2 SLP226 T00061050
Conditions at: KAGC (PITTSBURGH/ALLEG, PA, US) observed 0653 UTC 17 December 2017
Temperature: 0.6°C (33°F)
Dewpoint: -5.0°C (23°F) [RH = 66%]
Pressure (altimeter): 30.15 inches Hg (1021.1 mb)
[Sea-level pressure: 1022.6 mb]
Winds: from the SSW (200 degrees) at 8 MPH (7 knots; 3.6 m/s)
Visibility: 10 or more miles (16+ km)
Ceiling: at least 12,000 feet AGL
Clouds: sky clear below 12,000 feet AGL
Weather: no significant weather observed at this time

METAR text: KAGC 170553Z 19007KT 10SM CLR 01/M05 A3013 RMK AO2 SLP220 T00111050 10033 20006 50007
Conditions at: KAGC (PITTSBURGH/ALLEG, PA, US) observed 0553 UTC 17 December 2017
Temperature: 1.1°C (34°F)
Dewpoint: -5.0°C (23°F) [RH = 64%]
Pressure (altimeter): 30.13 inches Hg (1020.4 mb)
[Sea-level pressure: 1022.0 mb]
Winds: from the S (190 degrees) at 8 MPH (7 knots; 3.6 m/s)
Visibility: 10 or more miles (16+ km)
Ceiling: at least 12,000 feet AGL
Clouds: sky clear below 12,000 feet AGL
Weather: no significant weather observed at this time

METAR text: KAGC 170453Z 19009KT 10SM CLR 01/M05 A3014 RMK AO2 SLP222 T00111050 400441033
Conditions at: KAGC (PITTSBURGH/ALLEG, PA, US) observed 0453 UTC 17 December 2017
Temperature: 1.1°C (34°F)
Dewpoint: -5.0°C (23°F) [RH = 64%]
Pressure (altimeter): 30.14 inches Hg (1020.7 mb)
[Sea-level pressure: 1022.2 mb]
Winds: from the S (190 degrees) at 10 MPH (9 knots; 4.7 m/s)
Visibility: 10 or more miles (16+ km)
Ceiling: at least 12,000 feet AGL
Clouds: sky clear below 12,000 feet AGL
Weather: no significant weather observed at this time

METAR text: KAGC 170353Z AUTO 20008KT 10SM CLR 01/M05 A3012 RMK AO2 SLP216 T00111050
Conditions at: KAGC (PITTSBURGH/ALLEG, PA, US) observed 0353 UTC 17 December 2017
Temperature: 1.1°C (34°F)
Dewpoint: -5.0°C (23°F) [RH = 64%]
Pressure (altimeter): 30.12 inches Hg (1020.1 mb)
[Sea-level pressure: 1021.6 mb]
Winds: from the SSW (200 degrees) at 9 MPH (8 knots; 4.2 m/s)
Visibility: 10 or more miles (16+ km)
Ceiling: at least 12,000 feet AGL
Clouds: sky clear below 12,000 feet AGL
Weather: automated observation with no human augmentation;
there may or may not be significant weather present at this time

METAR text: KAGC 170253Z AUTO 20007KT 10SM CLR 02/M05 A3011 RMK AO2 SLP214 T00171050 51008
Conditions at: KAGC (PITTSBURGH/ALLEG, PA, US) observed 0253 UTC 17 December 2017
Temperature: 1.7°C (35°F)
Dewpoint: -5.0°C (23°F) [RH = 61%]
Pressure (altimeter): 30.11 inches Hg (1019.7 mb)
[Sea-level pressure: 1021.4 mb]
Winds: from the SSW (200 degrees) at 8 MPH (7 knots; 3.6 m/s)
Visibility: 10 or more miles (16+ km)
Ceiling: at least 12,000 feet AGL
Clouds: sky clear below 12,000 feet AGL
Weather: automated observation with no human augmentation;
there may or may not be significant weather present at this time

METAR text: KAGC 170153Z 19007KT 10SM CLR 02/M05 A3011 RMK AO2 SLP212 T00171050
Conditions at: KAGC (PITTSBURGH/ALLEG, PA, US) observed 0153 UTC 17 December 2017
Temperature: 1.7°C (35°F)
Dewpoint: -5.0°C (23°F) [RH = 61%]
Pressure (altimeter): 30.11 inches Hg (1019.7 mb)
[Sea-level pressure: 1021.2 mb]
Winds: from the S (190 degrees) at 8 MPH (7 knots; 3.6 m/s)
Visibility: 10 or more miles (16+ km)
Ceiling: at least 12,000 feet AGL
Clouds: sky clear below 12,000 feet AGL
Weather: no significant weather observed at this time

METAR text: KAGC 170053Z 21005KT 10SM CLR 03/M05 A3011 RMK AO2 SLP212 T00281050
Conditions at: KAGC (PITTSBURGH/ALLEG, PA, US) observed 0053 UTC 17 December 2017
Temperature: 2.8°C (37°F)
Dewpoint: -5.0°C (23°F) [RH = 56%]
Pressure (altimeter): 30.11 inches Hg (1019.7 mb)
[Sea-level pressure: 1021.2 mb]
Winds: from the SSW (210 degrees) at 6 MPH (5 knots; 2.6 m/s)
Visibility: 10 or more miles (16+ km)
Ceiling: at least 12,000 feet AGL
Clouds: sky clear below 12,000 feet AGL
Weather: no significant weather observed at this time

METAR text: KAGC 162353Z 21004KT 10SM CLR 03/M05 A3009 RMK AO2 SLP205 60000 T00281050 10044 20017 53024
Conditions at: KAGC (PITTSBURGH/ALLEG, PA, US) observed 2353 UTC 16 December 2017
Temperature: 2.8°C (37°F)
Dewpoint: -5.0°C (23°F) [RH = 56%]
Pressure (altimeter): 30.09 inches Hg (1019.0 mb)
[Sea-level pressure: 1020.5 mb]
Winds: from the SSW (210 degrees) at 5 MPH (4 knots; 2.1 m/s)
Visibility: 10 or more miles (16+ km)
Ceiling: at least 12,000 feet AGL
Clouds: sky clear below 12,000 feet AGL
Weather: no significant weather observed at this time

METAR text: KAGC 162253Z 22005KT 10SM CLR 03/M04 A3006 RMK AO2 SLP195 T00331044
Conditions at: KAGC (PITTSBURGH/ALLEG, PA, US) observed 2253 UTC 16 December 2017
Temperature: 3.3°C (38°F)
Dewpoint: -4.4°C (24°F) [RH = 57%]
Pressure (altimeter): 30.06 inches Hg (1018.0 mb)
[Sea-level pressure: 1019.5 mb]
Winds: from the SW (220 degrees) at 6 MPH (5 knots; 2.6 m/s)
Visibility: 10 or more miles (16+ km)
Ceiling: at least 12,000 feet AGL
Clouds: sky clear below 12,000 feet AGL
Weather: no significant weather observed at this time

METAR text: KAGC 162153Z 23005KT 10SM CLR 04/M04 A3003 RMK AO2 SLP186 T00391044
Conditions at: KAGC (PITTSBURGH/ALLEG, PA, US) observed 2153 UTC 16 December 2017
Temperature: 3.9°C (39°F)
Dewpoint: -4.4°C (24°F) [RH = 55%]
Pressure (altimeter): 30.03 inches Hg (1017.0 mb)
[Sea-level pressure: 1018.6 mb]
Winds: from the SW (230 degrees) at 6 MPH (5 knots; 2.6 m/s)
Visibility: 10 or more miles (16+ km)
Ceiling: at least 12,000 feet AGL
Clouds: sky clear below 12,000 feet AGL
Weather: no significant weather observed at this time

METAR text: KAGC 162053Z 23009KT 10SM CLR 04/M04 A3001 RMK AO2 SLP179 60000 T00441044 55000
Conditions at: KAGC (PITTSBURGH/ALLEG, PA, US) observed 2053 UTC 16 December 2017
Temperature: 4.4°C (40°F)
Dewpoint: -4.4°C (24°F) [RH = 53%]
Pressure (altimeter): 30.01 inches Hg (1016.3 mb)
[Sea-level pressure: 1017.9 mb]
Winds: from the SW (230 degrees) at 10 MPH (9 knots; 4.7 m/s)
Visibility: 10 or more miles (16+ km)
Ceiling: at least 12,000 feet AGL
Clouds: sky clear below 12,000 feet AGL
Weather: no significant weather observed at this time

METAR text: KAGC 161953Z 23012G19KT 10SM CLR 04/M04 A3000 RMK AO2 SLP175 T00391044
Conditions at: KAGC (PITTSBURGH/ALLEG, PA, US) observed 1953 UTC 16 December 2017
Temperature: 3.9°C (39°F)
Dewpoint: -4.4°C (24°F) [RH = 55%]
Pressure (altimeter): 30.00 inches Hg (1016.0 mb)
[Sea-level pressure: 1017.5 mb]
Winds: from the SW (230 degrees) at 14 MPH (12 knots; 6.2 m/s)
gusting to 22 MPH (19 knots; 9.9 m/s)
Visibility: 10 or more miles (16+ km)
Ceiling: at least 12,000 feet AGL
Clouds: sky clear below 12,000 feet AGL
Weather: no significant weather observed at this time

METAR text: KAGC 161853Z 22014G19KT 9SM FEW090 03/M04 A3001 RMK AO2 SNE50 SLP178 P0000 T00281044
Conditions at: KAGC (PITTSBURGH/ALLEG, PA, US) observed 1853 UTC 16 December 2017
Temperature: 2.8°C (37°F)
Dewpoint: -4.4°C (24°F) [RH = 59%]
Pressure (altimeter): 30.01 inches Hg (1016.3 mb)
[Sea-level pressure: 1017.8 mb]
Winds: from the SW (220 degrees) at 16 MPH (14 knots; 7.3 m/s)
gusting to 22 MPH (19 knots; 9.9 m/s)
Visibility: 9 miles (14 km)
Ceiling: at least 12,000 feet AGL
Clouds: few clouds at 9000 feet AGL
Weather: no significant weather observed at this time

METAR text: KAGC 161753Z 23010G19KT 8SM -SN BKN055 OVC070 02/M04 A3001 RMK AO2 SNB41 SLP181 P0000 60002 T00171044 10017 21028 58002
Conditions at: KAGC (PITTSBURGH/ALLEG, PA, US) observed 1753 UTC 16 December 2017
Temperature: 1.7°C (35°F)
Dewpoint: -4.4°C (24°F) [RH = 64%]
Pressure (altimeter): 30.01 inches Hg (1016.3 mb)
[Sea-level pressure: 1018.1 mb]
Winds: from the SW (230 degrees) at 12 MPH (10 knots; 5.2 m/s)
gusting to 22 MPH (19 knots; 9.9 m/s)
Visibility: 8 miles (13 km)
Ceiling: 5500 feet AGL
Clouds: broken clouds at 5500 feet AGL
overcast cloud deck at 7000 feet AGL
Weather: -SN  (light snow)

METAR text: KAGC 161653Z 24011KT 10SM OVC085 01/M05 A3002 RMK AO2 SNE23 SLP186 P0001 T00111050
Conditions at: KAGC (PITTSBURGH/ALLEG, PA, US) observed 1653 UTC 16 December 2017
Temperature: 1.1°C (34°F)
Dewpoint: -5.0°C (23°F) [RH = 64%]
Pressure (altimeter): 30.02 inches Hg (1016.7 mb)
[Sea-level pressure: 1018.6 mb]
Winds: from the WSW (240 degrees) at 13 MPH (11 knots; 5.7 m/s)
Visibility: 10 or more miles (16+ km)
Ceiling: 8500 feet AGL
Clouds: overcast cloud deck at 8500 feet AGL
Weather: no significant weather observed at this time

METAR text: KAGC 161553Z 22010KT 9SM -SN SCT038 OVC085 01/M06 A3003 RMK AO2 SLP188 P0001 T00061056
Conditions at: KAGC (PITTSBURGH/ALLEG, PA, US) observed 1553 UTC 16 December 2017
Temperature: 0.6°C (33°F)
Dewpoint: -5.6°C (22°F) [RH = 63%]
Pressure (altimeter): 30.03 inches Hg (1017.0 mb)
[Sea-level pressure: 1018.8 mb]
Winds: from the SW (220 degrees) at 12 MPH (10 knots; 5.2 m/s)
Visibility: 9 miles (14 km)
Ceiling: 8500 feet AGL
Clouds: scattered clouds at 3800 feet AGL
overcast cloud deck at 8500 feet AGL
Weather: -SN  (light snow)

METAR text: KAGC 161453Z 21011KT 9SM -SN OVC085 M01/M06 A3002 RMK AO2 SLP184 P0000 60000 T10061061 50003
Conditions at: KAGC (PITTSBURGH/ALLEG, PA, US) observed 1453 UTC 16 December 2017
Temperature: -0.6°C (31°F)
Dewpoint: -6.1°C (21°F) [RH = 66%]
Pressure (altimeter): 30.02 inches Hg (1016.7 mb)
[Sea-level pressure: 1018.4 mb]
Winds: from the SSW (210 degrees) at 13 MPH (11 knots; 5.7 m/s)
Visibility: 9 miles (14 km)
Ceiling: 8500 feet AGL
Clouds: overcast cloud deck at 8500 feet AGL
Weather: -SN  (light snow)

METAR text: KAGC 161353Z 21008KT 9SM -SN OVC085 M01/M06 A3002 RMK AO2 SNB36 SLP186 P0000 T10111061
Conditions at: KAGC (PITTSBURGH/ALLEG, PA, US) observed 1353 UTC 16 December 2017
Temperature: -1.1°C (30°F)
Dewpoint: -6.1°C (21°F) [RH = 69%]
Pressure (altimeter): 30.02 inches Hg (1016.7 mb)
[Sea-level pressure: 1018.6 mb]
Winds: from the SSW (210 degrees) at 9 MPH (8 knots; 4.2 m/s)
Visibility: 9 miles (14 km)
Ceiling: 8500 feet AGL
Clouds: overcast cloud deck at 8500 feet AGL
Weather: -SN  (light snow)